Time;durP1;ratioP1;P1;durP2;ratioP2;P2;SDS_P1;SDS_P2;PMS_P1;PMS_P2;Temp;Humidity;BMP_temperature;BMP_pressure;BME280_temperature;BME280_humidity;BME280_pressure;Samples;Min_cycle;Max_cycle;Signal;HPM_P1;HPM_P2
2020/12/21 00:01:43;;;;;;;30.73;14.75;;;;;;;;;;5069768;28;20543;-64
2020/12/21 00:04:09;;;;;;;28.95;15.15;;;;;;;;;;5073178;28;20043;-64
2020/12/21 00:06:35;;;;;;;24.77;14.13;;;;;;;;;;5075681;28;20031;-64
2020/12/21 00:09:01;;;;;;;28.70;16.08;;;;;;;;;;5060751;28;20051;-64
2020/12/21 00:11:34;;;;;;;22.88;13.82;;;;;;;;;;5070956;28;20476;-64
2020/12/21 00:14:00;;;;;;;28.88;15.63;;;;;;;;;;5066983;28;20024;-64
2020/12/21 00:16:26;;;;;;;26.73;15.35;;;;;;;;;;5076285;28;20568;-64
2020/12/21 00:18:52;;;;;;;27.08;14.70;;;;;;;;;;5070116;28;20032;-64
2020/12/21 00:21:18;;;;;;;26.25;14.88;;;;;;;;;;5071553;28;20033;-64
2020/12/21 00:23:44;;;;;;;28.55;15.48;;;;;;;;;;5069811;28;20077;-64
2020/12/21 00:26:10;;;;;;;26.30;15.02;;;;;;;;;;5073345;28;20566;-64
2020/12/21 00:28:36;;;;;;;27.77;14.93;;;;;;;;;;5072144;28;20025;-64
2020/12/21 00:31:02;;;;;;;28.00;15.20;;;;;;;;;;5070737;28;20131;-64
2020/12/21 00:33:31;;;;;;;28.98;14.82;;;;;;;;;;5071970;28;20032;-64
2020/12/21 00:35:57;;;;;;;26.20;15.25;;;;;;;;;;5073570;28;20036;-64
2020/12/21 00:38:23;;;;;;;24.27;13.77;;;;;;;;;;5067649;28;20447;-64
2020/12/21 00:40:49;;;;;;;26.15;15.13;;;;;;;;;;5080258;28;20028;-64
2020/12/21 00:43:14;;;;;;;26.77;14.32;;;;;;;;;;5072317;28;20044;-64
2020/12/21 00:45:40;;;;;;;31.27;14.73;;;;;;;;;;5076028;28;20023;-64
2020/12/21 00:48:06;;;;;;;28.23;15.48;;;;;;;;;;5074217;28;20029;-64
2020/12/21 00:50:32;;;;;;;26.95;14.60;;;;;;;;;;5074107;28;20029;-64
2020/12/21 00:52:58;;;;;;;26.38;14.50;;;;;;;;;;5082163;28;20016;-64
2020/12/21 00:55:24;;;;;;;31.23;16.08;;;;;;;;;;5073401;28;20464;-64
2020/12/21 00:57:50;;;;;;;26.80;15.18;;;;;;;;;;5071308;28;20025;-64
2020/12/21 01:00:17;;;;;;;29.55;15.18;;;;;;;;;;5077081;28;20047;-64
2020/12/21 01:02:43;;;;;;;26.25;14.43;;;;;;;;;;5071668;28;20115;-64
2020/12/21 01:05:09;;;;;;;28.23;14.30;;;;;;;;;;5073098;28;20547;-64
2020/12/21 01:07:34;;;;;;;31.83;16.10;;;;;;;;;;5073248;28;20043;-64
2020/12/21 01:10:00;;;;;;;27.33;15.60;;;;;;;;;;5076013;28;20029;-64
2020/12/21 01:12:28;;;;;;;28.00;14.88;;;;;;;;;;5073633;28;20025;-64
2020/12/21 01:14:54;;;;;;;27.30;15.75;;;;;;;;;;5071526;28;20060;-64
2020/12/21 01:17:20;;;;;;;30.67;17.33;;;;;;;;;;5075384;28;20035;-64
2020/12/21 01:19:46;;;;;;;29.23;15.75;;;;;;;;;;5072995;28;20130;-64
2020/12/21 01:22:12;;;;;;;29.40;15.63;;;;;;;;;;5076425;28;20028;-64
2020/12/21 01:24:40;;;;;;;29.05;16.40;;;;;;;;;;5074879;28;20039;-64
2020/12/21 01:27:06;;;;;;;31.63;16.45;;;;;;;;;;5071124;28;20517;-64
2020/12/21 01:29:32;;;;;;;31.05;16.70;;;;;;;;;;5075422;28;20021;-64
2020/12/21 01:31:58;;;;;;;32.78;17.70;;;;;;;;;;5070105;28;20027;-64
2020/12/21 01:34:23;;;;;;;31.35;17.38;;;;;;;;;;5075699;28;20365;-64
2020/12/21 01:36:49;;;;;;;32.55;18.27;;;;;;;;;;5080405;28;20619;-64
2020/12/21 01:39:15;;;;;;;34.42;19.10;;;;;;;;;;5071941;28;20034;-64
2020/12/21 01:41:41;;;;;;;36.17;18.17;;;;;;;;;;5077187;28;20035;-64
2020/12/21 01:44:07;;;;;;;33.50;17.73;;;;;;;;;;5068824;28;20089;-64
2020/12/21 01:46:33;;;;;;;30.90;17.77;;;;;;;;;;5071783;28;20028;-64
2020/12/21 01:48:59;;;;;;;30.73;17.20;;;;;;;;;;5076155;28;20121;-64
2020/12/21 01:51:27;;;;;;;38.30;18.48;;;;;;;;;;5070299;28;20034;-64
2020/12/21 01:53:53;;;;;;;32.72;17.38;;;;;;;;;;5073156;28;20040;-64
2020/12/21 01:56:19;;;;;;;32.63;17.25;;;;;;;;;;5073474;28;20774;-64
2020/12/21 01:58:46;;;;;;;34.30;17.73;;;;;;;;;;5074294;28;20070;-64
2020/12/21 02:01:13;;;;;;;33.38;17.27;;;;;;;;;;5073423;28;20028;-64
2020/12/21 02:03:39;;;;;;;30.75;16.70;;;;;;;;;;5069333;28;20682;-64
2020/12/21 02:06:05;;;;;;;33.70;17.23;;;;;;;;;;5078858;28;20028;-64
2020/12/21 02:08:31;;;;;;;35.97;19.17;;;;;;;;;;5075663;28;20025;-64
2020/12/21 02:10:57;;;;;;;34.67;17.95;;;;;;;;;;5069342;28;20109;-64
2020/12/21 02:13:23;;;;;;;36.65;18.17;;;;;;;;;;5065793;28;20032;-64
2020/12/21 02:15:49;;;;;;;27.65;16.20;;;;;;;;;;5073085;28;20029;-64
2020/12/21 02:18:15;;;;;;;35.55;19.42;;;;;;;;;;5073950;28;20024;-64
2020/12/21 02:20:41;;;;;;;35.47;19.77;;;;;;;;;;5072522;28;20105;-64
2020/12/21 02:23:07;;;;;;;40.50;21.05;;;;;;;;;;5070530;28;20040;-64
2020/12/21 02:25:33;;;;;;;41.40;20.60;;;;;;;;;;5074315;28;20024;-64
2020/12/21 02:27:59;;;;;;;34.97;19.85;;;;;;;;;;5072303;28;20020;-64
2020/12/21 02:30:25;;;;;;;36.20;19.73;;;;;;;;;;5079311;28;20024;-64
2020/12/21 02:32:51;;;;;;;37.40;20.38;;;;;;;;;;5082742;28;20031;-64
2020/12/21 02:35:17;;;;;;;33.75;18.48;;;;;;;;;;5069521;28;20028;-64
2020/12/21 02:37:43;;;;;;;35.65;19.33;;;;;;;;;;5073336;28;20089;-64
2020/12/21 02:40:09;;;;;;;29.35;17.10;;;;;;;;;;5070586;28;20035;-64
2020/12/21 02:42:35;;;;;;;32.72;18.52;;;;;;;;;;5072494;28;20429;-64
2020/12/21 02:45:01;;;;;;;36.40;19.38;;;;;;;;;;5072182;28;20032;-64
2020/12/21 02:47:27;;;;;;;31.02;17.40;;;;;;;;;;5076461;28;20029;-64
2020/12/21 02:49:53;;;;;;;31.10;18.23;;;;;;;;;;5074748;28;20074;-64
2020/12/21 02:52:19;;;;;;;35.08;19.40;;;;;;;;;;5071726;28;20481;-64
2020/12/21 02:54:48;;;;;;;34.65;19.83;;;;;;;;;;5076645;28;20028;-64
2020/12/21 02:57:14;;;;;;;33.30;18.42;;;;;;;;;;5074433;28;20371;-64
2020/12/21 02:59:41;;;;;;;33.42;17.90;;;;;;;;;;5069407;28;20029;-64
2020/12/21 03:02:07;;;;;;;30.45;17.98;;;;;;;;;;5074771;28;20032;-64
2020/12/21 03:04:33;;;;;;;31.60;17.20;;;;;;;;;;5070934;28;20040;-64
2020/12/21 03:07:00;;;;;;;34.10;18.27;;;;;;;;;;5072406;28;20020;-64
2020/12/21 03:09:26;;;;;;;31.75;17.70;;;;;;;;;;5072389;28;20035;-64
2020/12/21 03:11:52;;;;;;;32.85;18.13;;;;;;;;;;5074747;28;20016;-64
2020/12/21 03:14:17;;;;;;;31.98;18.10;;;;;;;;;;5073324;28;20029;-64
2020/12/21 03:16:43;;;;;;;32.20;18.05;;;;;;;;;;5066333;28;20090;-64
2020/12/21 03:19:09;;;;;;;31.42;17.17;;;;;;;;;;5075866;28;20031;-64
2020/12/21 03:21:35;;;;;;;31.35;17.33;;;;;;;;;;5070000;28;20032;-64
2020/12/21 03:24:02;;;;;;;32.70;17.70;;;;;;;;;;5068804;28;20029;-64
2020/12/21 03:26:28;;;;;;;29.55;17.30;;;;;;;;;;5070390;28;20028;-64
2020/12/21 03:28:53;;;;;;;31.92;16.95;;;;;;;;;;5074002;28;20540;-64
2020/12/21 03:31:20;;;;;;;32.13;19.05;;;;;;;;;;5074775;28;20024;-64
2020/12/21 03:33:46;;;;;;;32.65;17.90;;;;;;;;;;5066378;28;20028;-64
2020/12/21 03:36:12;;;;;;;32.33;16.95;;;;;;;;;;5071704;28;20032;-64
2020/12/21 03:38:38;;;;;;;29.48;16.95;;;;;;;;;;5073937;28;20029;-64
2020/12/21 03:41:04;;;;;;;27.98;15.95;;;;;;;;;;5073690;28;20383;-64
2020/12/21 03:43:30;;;;;;;30.92;18.17;;;;;;;;;;5069859;28;20757;-64
2020/12/21 03:45:55;;;;;;;30.27;16.92;;;;;;;;;;5060757;28;20051;-64
2020/12/21 03:48:21;;;;;;;28.48;17.70;;;;;;;;;;5069693;28;20082;-64
2020/12/21 03:50:47;;;;;;;30.63;17.58;;;;;;;;;;5074519;28;20028;-64
2020/12/21 03:53:13;;;;;;;30.13;17.52;;;;;;;;;;5071040;28;20036;-64
2020/12/21 03:55:39;;;;;;;28.48;17.05;;;;;;;;;;5073106;28;20021;-64
2020/12/21 03:58:05;;;;;;;33.88;17.33;;;;;;;;;;5069757;28;20036;-64
2020/12/21 04:00:31;;;;;;;32.30;17.80;;;;;;;;;;5069249;28;20104;-64
2020/12/21 04:02:57;;;;;;;29.90;17.48;;;;;;;;;;5072558;28;20445;-64
2020/12/21 04:05:23;;;;;;;31.92;17.30;;;;;;;;;;5070727;28;20028;-64
2020/12/21 04:07:49;;;;;;;27.95;15.95;;;;;;;;;;5072920;28;20070;-64
2020/12/21 04:10:15;;;;;;;28.23;16.45;;;;;;;;;;5074544;28;20024;-64
2020/12/21 04:12:41;;;;;;;27.92;16.48;;;;;;;;;;5067691;28;20028;-64
2020/12/21 04:15:07;;;;;;;24.48;15.38;;;;;;;;;;5076995;28;20023;-64
2020/12/21 04:17:33;;;;;;;28.10;16.80;;;;;;;;;;5070348;28;20444;-64
2020/12/21 04:19:59;;;;;;;27.60;16.38;;;;;;;;;;5072799;28;20038;-64
2020/12/21 04:22:25;;;;;;;27.35;16.08;;;;;;;;;;5074189;28;20020;-64
2020/12/21 04:24:51;;;;;;;28.25;16.75;;;;;;;;;;5076718;28;20050;-64
2020/12/21 04:27:17;;;;;;;30.50;17.38;;;;;;;;;;5071373;28;20610;-64
2020/12/21 04:29:43;;;;;;;33.83;20.85;;;;;;;;;;5067393;28;20028;-64
2020/12/21 04:32:09;;;;;;;33.17;18.90;;;;;;;;;;5080234;28;20013;-64
2020/12/21 04:34:35;;;;;;;29.92;17.17;;;;;;;;;;5075689;28;20177;-64
2020/12/21 04:37:02;;;;;;;31.70;17.63;;;;;;;;;;5073604;28;20025;-64
2020/12/21 04:39:28;;;;;;;30.38;17.60;;;;;;;;;;5080601;28;20028;-64
2020/12/21 04:41:55;;;;;;;30.10;17.65;;;;;;;;;;5074414;28;20173;-64
2020/12/21 04:44:21;;;;;;;32.15;16.63;;;;;;;;;;5072417;28;20115;-64
2020/12/21 04:46:48;;;;;;;26.02;15.75;;;;;;;;;;5076277;28;20383;-64
2020/12/21 04:49:16;;;;;;;27.65;16.00;;;;;;;;;;5075342;28;20020;-64
2020/12/21 04:51:44;;;;;;;25.95;15.85;;;;;;;;;;5074798;28;20031;-64
2020/12/21 04:54:10;;;;;;;30.40;16.02;;;;;;;;;;5072850;28;20123;-64
2020/12/21 04:56:37;;;;;;;28.88;15.90;;;;;;;;;;5076160;28;20082;-64
2020/12/21 04:59:03;;;;;;;29.90;15.55;;;;;;;;;;5064128;28;20059;-64
2020/12/21 05:01:29;;;;;;;32.42;16.42;;;;;;;;;;5072572;28;20441;-64
2020/12/21 05:03:55;;;;;;;31.17;16.50;;;;;;;;;;5076004;28;20041;-64
2020/12/21 05:06:21;;;;;;;30.50;17.15;;;;;;;;;;5066904;28;20154;-64
2020/12/21 05:08:47;;;;;;;30.88;15.75;;;;;;;;;;5076513;28;20082;-64
2020/12/21 05:11:13;;;;;;;28.13;15.98;;;;;;;;;;5076059;28;20026;-64
2020/12/21 05:13:39;;;;;;;32.13;17.38;;;;;;;;;;5071176;28;20459;-64
2020/12/21 05:16:05;;;;;;;28.35;16.60;;;;;;;;;;5076921;28;20063;-64
2020/12/21 05:18:34;;;;;;;26.33;15.75;;;;;;;;;;5074653;28;20035;-64
2020/12/21 05:21:00;;;;;;;29.00;15.77;;;;;;;;;;5073444;28;20020;-64
2020/12/21 05:23:27;;;;;;;25.50;15.57;;;;;;;;;;5072825;28;20041;-64
2020/12/21 05:26:00;;;;;;;32.35;16.45;;;;;;;;;;5073743;28;20028;-64
2020/12/21 05:28:26;;;;;;;;;;;;;;;;;;5074223;28;20725;-64
2020/12/21 05:30:52;;;;;;;29.08;15.98;;;;;;;;;;5079106;28;19955;-64
2020/12/21 05:33:18;;;;;;;31.17;16.27;;;;;;;;;;5074699;28;20024;-64
2020/12/21 05:35:45;;;;;;;30.92;16.60;;;;;;;;;;5066267;28;20036;-64
2020/12/21 05:38:24;;;;;;;28.25;16.50;;;;;;;;;;5076875;28;20024;-64
2020/12/21 05:40:50;;;;;;;30.58;16.92;;;;;;;;;;5067145;28;20036;-64
2020/12/21 05:43:26;;;;;;;28.80;15.82;;;;;;;;;;5068996;28;20021;-64
2020/12/21 05:46:13;;;;;;;27.58;16.83;;;;;;;;;;5073480;28;20028;-64
2020/12/21 05:48:40;;;;;;;28.50;16.30;;;;;;;;;;5074756;28;20035;-64
2020/12/21 05:51:07;;;;;;;27.38;16.30;;;;;;;;;;5076761;28;20484;-63
2020/12/21 05:53:37;;;;;;;30.02;17.00;;;;;;;;;;5071948;28;20028;-63
2020/12/21 05:56:04;;;;;;;28.65;14.63;;;;;;;;;;5068343;28;20044;-63
2020/12/21 05:58:31;;;;;;;35.13;17.83;;;;;;;;;;5074099;28;20040;-64
2020/12/21 06:00:59;;;;;;;33.17;16.63;;;;;;;;;;5070467;28;20032;-64
2020/12/21 06:03:34;;;;;;;27.05;15.82;;;;;;;;;;5063391;28;20508;-64
2020/12/21 06:06:06;;;;;;;32.55;17.05;;;;;;;;;;5071966;28;20028;-64
2020/12/21 06:08:34;;;;;;;32.88;17.75;;;;;;;;;;5074967;28;20622;-64
2020/12/21 06:11:08;;;;;;;32.33;17.55;;;;;;;;;;5074336;28;20028;-64
2020/12/21 06:13:36;;;;;;;32.78;18.30;;;;;;;;;;5074087;28;20373;-64
2020/12/21 06:16:02;;;;;;;37.67;18.67;;;;;;;;;;5076419;28;20573;-64
2020/12/21 06:18:28;;;;;;;32.40;17.83;;;;;;;;;;5078518;28;20028;-64
2020/12/21 06:20:54;;;;;;;32.97;17.20;;;;;;;;;;5074107;28;20024;-64
2020/12/21 06:23:29;;;;;;;32.60;17.67;;;;;;;;;;5068067;28;20111;-64
2020/12/21 06:25:55;;;;;;;31.85;17.00;;;;;;;;;;5067625;28;20028;-64
2020/12/21 06:28:28;;;;;;;31.65;16.67;;;;;;;;;;5069206;28;20028;-64
2020/12/21 06:30:54;;;;;;;32.38;17.73;;;;;;;;;;5075888;28;20028;-64
2020/12/21 06:33:20;;;;;;;32.28;17.80;;;;;;;;;;5067804;28;20035;-64
2020/12/21 06:35:46;;;;;;;30.55;16.20;;;;;;;;;;5073952;28;20024;-64
2020/12/21 06:38:12;;;;;;;31.70;16.90;;;;;;;;;;5069947;28;20530;-64
2020/12/21 06:40:38;;;;;;;33.67;17.60;;;;;;;;;;5075656;28;20027;-64
2020/12/21 06:43:14;;;;;;;37.13;19.17;;;;;;;;;;5071725;28;20058;-64
2020/12/21 06:45:40;;;;;;;31.33;16.52;;;;;;;;;;5073745;28;20104;-64
2020/12/21 06:48:07;;;;;;;32.33;17.60;;;;;;;;;;5072756;28;20025;-64
2020/12/21 06:50:33;;;;;;;30.88;16.20;;;;;;;;;;5070841;28;20116;-64
2020/12/21 06:52:59;;;;;;;33.45;18.55;;;;;;;;;;5074477;28;20039;-64
2020/12/21 06:55:35;;;;;;;30.15;16.98;;;;;;;;;;5073165;28;20036;-64
2020/12/21 06:58:01;;;;;;;34.70;18.13;;;;;;;;;;5067442;28;20085;-64
2020/12/21 07:00:27;;;;;;;34.03;17.42;;;;;;;;;;5072884;28;20032;-64
2020/12/21 07:02:54;;;;;;;37.53;19.95;;;;;;;;;;5077787;28;20021;-64
2020/12/21 07:05:20;;;;;;;37.20;19.58;;;;;;;;;;5066649;28;20063;-63
2020/12/21 07:07:56;;;;;;;36.65;17.90;;;;;;;;;;5067175;28;20021;-63
2020/12/21 07:10:22;;;;;;;33.55;18.27;;;;;;;;;;5064215;28;20029;-64
2020/12/21 07:12:48;;;;;;;36.58;17.42;;;;;;;;;;5066716;28;20029;-64
2020/12/21 07:15:14;;;;;;;39.10;18.20;;;;;;;;;;5075332;28;20073;-64
2020/12/21 07:17:40;;;;;;;36.95;18.25;;;;;;;;;;5066818;28;20527;-63
2020/12/21 07:20:06;;;;;;;37.17;18.50;;;;;;;;;;5067974;28;20074;-64
2020/12/21 07:22:32;;;;;;;38.08;18.25;;;;;;;;;;5075963;28;20035;-64
2020/12/21 07:24:58;;;;;;;40.28;19.30;;;;;;;;;;5067450;28;20025;-63
2020/12/21 07:27:23;;;;;;;39.80;19.08;;;;;;;;;;5064247;28;20040;-64
2020/12/21 07:29:49;;;;;;;39.35;19.52;;;;;;;;;;5076770;28;20032;-63
2020/12/21 07:32:16;;;;;;;32.78;17.20;;;;;;;;;;5069156;28;20032;-63
2020/12/21 07:34:42;;;;;;;38.70;19.42;;;;;;;;;;5070221;28;20032;-64
2020/12/21 07:37:11;;;;;;;54.08;23.67;;;;;;;;;;5072212;28;20038;-64
2020/12/21 07:39:37;;;;;;;40.60;21.02;;;;;;;;;;5070128;28;20767;-64
2020/12/21 07:42:06;;;;;;;42.10;19.85;;;;;;;;;;5069688;28;20097;-64
2020/12/21 07:44:33;;;;;;;41.58;19.52;;;;;;;;;;5072637;28;20599;-64
2020/12/21 07:47:17;;;;;;;43.60;17.50;;;;;;;;;;5063867;28;20028;-64
2020/12/21 07:49:44;;;;;;;34.45;18.08;;;;;;;;;;5068003;28;20033;-63
2020/12/21 07:52:10;;;;;;;39.38;19.35;;;;;;;;;;5060641;28;20027;-64
2020/12/21 07:54:40;;;;;;;36.22;16.65;;;;;;;;;;5066859;28;20024;-64
2020/12/21 07:57:07;;;;;;;31.85;16.50;;;;;;;;;;5064678;28;20020;-64
2020/12/21 07:59:33;;;;;;;32.03;16.58;;;;;;;;;;5068955;28;20468;-64
2020/12/21 08:02:00;;;;;;;31.77;16.15;;;;;;;;;;5055346;28;20037;-64
2020/12/21 08:04:26;;;;;;;33.10;16.42;;;;;;;;;;5040074;28;486557;-64
2020/12/21 08:06:52;;;;;;;36.83;16.50;;;;;;;;;;5068301;28;20047;-64
2020/12/21 08:09:19;;;;;;;35.25;16.17;;;;;;;;;;5062408;28;20373;-64
2020/12/21 08:11:45;;;;;;;33.70;17.08;;;;;;;;;;5065294;28;20143;-64
2020/12/21 08:14:17;;;;;;;28.63;15.02;;;;;;;;;;5064476;28;20028;-64
2020/12/21 08:16:44;;;;;;;30.20;16.13;;;;;;;;;;5065673;28;20028;-64
2020/12/21 08:19:22;;;;;;;37.33;16.88;;;;;;;;;;5061048;28;20503;-64
2020/12/21 08:21:49;;;;;;;30.55;15.88;;;;;;;;;;5065659;28;20029;-64
2020/12/21 08:24:15;;;;;;;35.80;17.15;;;;;;;;;;5067914;28;20039;-64
2020/12/21 08:26:41;;;;;;;33.85;18.13;;;;;;;;;;5061953;28;20766;-64
2020/12/21 08:29:07;;;;;;;34.08;17.88;;;;;;;;;;5065044;28;20025;-64
2020/12/21 08:31:42;;;;;;;38.95;19.55;;;;;;;;;;5061827;28;20178;-64
2020/12/21 08:34:08;;;;;;;33.10;17.67;;;;;;;;;;5062165;28;20028;-63
2020/12/21 08:36:35;;;;;;;34.40;18.25;;;;;;;;;;5060425;28;20483;-64
2020/12/21 08:39:08;;;;;;;33.60;16.40;;;;;;;;;;5061553;28;20807;-64
2020/12/21 08:41:42;;;;;;;35.05;18.40;;;;;;;;;;5060788;28;20036;-64
2020/12/21 08:44:12;;;;;;;31.67;16.30;;;;;;;;;;5072520;28;20024;-64
2020/12/21 08:46:40;;;;;;;34.38;16.88;;;;;;;;;;5061390;28;20724;-64
2020/12/21 08:49:07;;;;;;;33.40;16.25;;;;;;;;;;5063480;28;20028;-64
2020/12/21 08:51:33;;;;;;;29.73;14.77;;;;;;;;;;5059889;28;20040;-62
2020/12/21 08:53:59;;;;;;;37.13;16.45;;;;;;;;;;5060390;28;20115;-64
2020/12/21 08:56:25;;;;;;;34.72;18.17;;;;;;;;;;5063594;28;20029;-64
2020/12/21 08:58:51;;;;;;;37.95;17.10;;;;;;;;;;5060531;28;20028;-64
2020/12/21 09:01:17;;;;;;;29.52;15.65;;;;;;;;;;5063756;28;20029;-64
2020/12/21 09:03:44;;;;;;;32.92;17.73;;;;;;;;;;5062367;28;20098;-64
2020/12/21 09:06:15;;;;;;;32.75;17.67;;;;;;;;;;5063560;28;20739;-64
2020/12/21 09:08:41;;;;;;;31.17;17.55;;;;;;;;;;5066742;28;20156;-64
2020/12/21 09:11:07;;;;;;;37.30;17.33;;;;;;;;;;5061461;28;20028;-64
2020/12/21 09:13:34;;;;;;;36.63;17.40;;;;;;;;;;5070419;28;20418;-64
2020/12/21 09:16:01;;;;;;;30.33;16.10;;;;;;;;;;5061157;28;20043;-64
2020/12/21 09:18:27;;;;;;;31.73;17.13;;;;;;;;;;5065159;28;20023;-64
2020/12/21 09:20:53;;;;;;;34.40;17.45;;;;;;;;;;5057196;28;20418;-64
2020/12/21 09:23:19;;;;;;;32.72;15.40;;;;;;;;;;5062012;28;20024;-64
2020/12/21 09:25:44;;;;;;;36.60;16.77;;;;;;;;;;5065873;28;20104;-64
2020/12/21 09:28:11;;;;;;;31.88;15.80;;;;;;;;;;5063019;28;20021;-64
2020/12/21 09:30:37;;;;;;;37.13;16.98;;;;;;;;;;5066134;28;20035;-64
2020/12/21 09:33:03;;;;;;;31.10;15.52;;;;;;;;;;5063560;28;20024;-64
2020/12/21 09:35:29;;;;;;;32.78;15.15;;;;;;;;;;5056384;28;20032;-64
2020/12/21 09:37:55;;;;;;;29.08;16.10;;;;;;;;;;5070147;28;20058;-64
2020/12/21 09:40:22;;;;;;;30.23;15.80;;;;;;;;;;5067392;28;20020;-64
2020/12/21 09:42:48;;;;;;;31.88;16.73;;;;;;;;;;5063764;28;20723;-64
2020/12/21 09:45:14;;;;;;;31.35;15.88;;;;;;;;;;5066754;28;20140;-64
2020/12/21 09:47:40;;;;;;;28.30;14.73;;;;;;;;;;5071998;28;20037;-64
2020/12/21 09:50:06;;;;;;;30.08;17.27;;;;;;;;;;5058819;28;20022;-64
2020/12/21 09:52:32;;;;;;;26.77;15.52;;;;;;;;;;5066674;28;20059;-64
2020/12/21 09:54:58;;;;;;;30.20;15.57;;;;;;;;;;5067658;28;20031;-64
2020/12/21 09:57:24;;;;;;;28.55;15.45;;;;;;;;;;5061645;28;20044;-64
2020/12/21 09:59:50;;;;;;;33.00;14.60;;;;;;;;;;5070568;28;20032;-64
2020/12/21 10:02:15;;;;;;;30.08;15.50;;;;;;;;;;5054859;28;20079;-64
2020/12/21 10:04:41;;;;;;;26.48;14.38;;;;;;;;;;5058780;28;20048;-64
2020/12/21 10:07:07;;;;;;;31.80;14.65;;;;;;;;;;5059052;28;20025;-64
2020/12/21 10:09:33;;;;;;;28.98;14.13;;;;;;;;;;5057850;28;20047;-64
2020/12/21 10:11:59;;;;;;;27.38;13.38;;;;;;;;;;5065846;28;20013;-64
2020/12/21 10:14:25;;;;;;;28.98;14.77;;;;;;;;;;5064663;28;20383;-64
2020/12/21 10:16:54;;;;;;;25.05;12.57;;;;;;;;;;5070099;28;20687;-64
2020/12/21 10:19:21;;;;;;;26.65;14.18;;;;;;;;;;5066311;28;20028;-64
2020/12/21 10:21:47;;;;;;;22.90;12.57;;;;;;;;;;5069282;28;20089;-64
2020/12/21 10:24:13;;;;;;;22.55;11.75;;;;;;;;;;5070348;28;20041;-64
2020/12/21 10:26:40;;;;;;;20.55;11.90;;;;;;;;;;5072604;28;20017;-64
2020/12/21 10:29:06;;;;;;;22.25;11.63;;;;;;;;;;5078001;28;20166;-64
2020/12/21 10:31:32;;;;;;;23.58;12.15;;;;;;;;;;5067175;28;20472;-64
2020/12/21 10:33:58;;;;;;;20.55;11.98;;;;;;;;;;5068973;28;20342;-64
2020/12/21 10:36:24;;;;;;;20.95;11.57;;;;;;;;;;5073727;28;20149;-64
2020/12/21 10:38:50;;;;;;;27.05;11.50;;;;;;;;;;5063086;28;20047;-64
2020/12/21 10:41:17;;;;;;;21.35;12.27;;;;;;;;;;5074907;28;20116;-64
2020/12/21 10:43:43;;;;;;;26.05;12.23;;;;;;;;;;5074290;28;20052;-65
2020/12/21 10:46:09;;;;;;;18.40;11.40;;;;;;;;;;5067420;28;20078;-64
2020/12/21 10:48:35;;;;;;;18.80;11.35;;;;;;;;;;5069215;28;20032;-64
2020/12/21 10:51:01;;;;;;;20.77;11.10;;;;;;;;;;5074348;28;20028;-64
2020/12/21 10:53:27;;;;;;;20.48;11.60;;;;;;;;;;5065696;28;20020;-64
2020/12/21 10:55:53;;;;;;;23.45;11.40;;;;;;;;;;5069360;28;20346;-64
2020/12/21 10:58:19;;;;;;;20.40;11.15;;;;;;;;;;5072593;28;20103;-64
2020/12/21 11:00:45;;;;;;;19.63;10.30;;;;;;;;;;5072453;28;20116;-64
2020/12/21 11:03:11;;;;;;;17.75;9.38;;;;;;;;;;5070328;28;20587;-64
2020/12/21 11:05:37;;;;;;;14.95;7.97;;;;;;;;;;5057532;28;20032;-65
2020/12/21 11:08:03;;;;;;;11.38;7.03;;;;;;;;;;5060407;28;20059;-64
2020/12/21 11:10:30;;;;;;;13.55;7.22;;;;;;;;;;5062081;28;20508;-65
2020/12/21 11:12:56;;;;;;;14.70;6.38;;;;;;;;;;5069674;28;20036;-65
2020/12/21 11:15:22;;;;;;;15.00;7.32;;;;;;;;;;5066273;28;20040;-65
2020/12/21 11:17:48;;;;;;;11.40;6.97;;;;;;;;;;5069444;28;20043;-65
2020/12/21 11:20:14;;;;;;;13.05;5.93;;;;;;;;;;5069304;28;20058;-65
2020/12/21 11:22:42;;;;;;;11.40;6.15;;;;;;;;;;5060108;28;20066;-65
2020/12/21 11:25:08;;;;;;;11.23;6.35;;;;;;;;;;5057311;28;20029;-65
2020/12/21 11:27:34;;;;;;;12.65;7.20;;;;;;;;;;5069373;28;20043;-64
2020/12/21 11:29:59;;;;;;;10.93;6.38;;;;;;;;;;5066013;28;20025;-65
2020/12/21 11:32:25;;;;;;;13.55;6.70;;;;;;;;;;5069126;28;20023;-66
2020/12/21 11:34:51;;;;;;;15.80;7.05;;;;;;;;;;5066748;28;20032;-66
2020/12/21 11:37:18;;;;;;;14.00;7.05;;;;;;;;;;5071405;28;20063;-66
2020/12/21 11:39:44;;;;;;;15.90;7.13;;;;;;;;;;5063328;28;20024;-66
2020/12/21 11:42:10;;;;;;;11.80;7.20;;;;;;;;;;5070444;28;20029;-66
2020/12/21 11:44:36;;;;;;;12.85;6.50;;;;;;;;;;5070708;28;20028;-66
2020/12/21 11:47:08;;;;;;;12.80;6.97;;;;;;;;;;5073332;28;20028;-66
2020/12/21 11:49:34;;;;;;;13.35;7.40;;;;;;;;;;5066927;28;20032;-66
2020/12/21 11:52:00;;;;;;;14.32;7.60;;;;;;;;;;5069911;28;20024;-66
2020/12/21 11:54:26;;;;;;;11.77;7.43;;;;;;;;;;5065890;28;20524;-65
2020/12/21 11:56:58;;;;;;;14.05;6.82;;;;;;;;;;5076666;28;20037;-65
2020/12/21 11:59:24;;;;;;;13.15;7.22;;;;;;;;;;5063998;28;20036;-65
2020/12/21 12:02:00;;;;;;;13.15;7.72;;;;;;;;;;5063126;28;20021;-65
2020/12/21 12:04:26;;;;;;;15.70;8.50;;;;;;;;;;5068528;28;20500;-65
2020/12/21 12:06:53;;;;;;;13.82;7.32;;;;;;;;;;5071774;28;20048;-65
2020/12/21 12:09:20;;;;;;;13.70;7.45;;;;;;;;;;5064810;28;20448;-65
2020/12/21 12:11:46;;;;;;;11.55;6.70;;;;;;;;;;5074291;28;20158;-66
2020/12/21 12:14:13;;;;;;;17.92;7.95;;;;;;;;;;5068519;28;20555;-65
2020/12/21 12:16:39;;;;;;;12.68;7.13;;;;;;;;;;5073556;28;20490;-65
2020/12/21 12:19:05;;;;;;;16.75;7.75;;;;;;;;;;5070496;28;20106;-65
2020/12/21 12:21:31;;;;;;;15.55;7.35;;;;;;;;;;5066022;28;20418;-65
2020/12/21 12:23:56;;;;;;;13.85;7.60;;;;;;;;;;5063819;28;20032;-65
2020/12/21 12:26:24;;;;;;;14.00;7.25;;;;;;;;;;5068710;28;20028;-65
2020/12/21 12:28:50;;;;;;;10.75;6.22;;;;;;;;;;5072380;28;20032;-65
2020/12/21 12:31:17;;;;;;;13.23;6.57;;;;;;;;;;5061007;28;20024;-65
2020/12/21 12:33:43;;;;;;;10.60;5.95;;;;;;;;;;5064591;28;20070;-57
2020/12/21 12:36:09;;;;;;;18.17;6.65;;;;;;;;;;5071011;28;20475;-54
2020/12/21 12:38:35;;;;;;;11.63;6.25;;;;;;;;;;5072608;28;20087;-50
2020/12/21 12:41:01;;;;;;;11.35;6.65;;;;;;;;;;5073443;28;20488;-50
2020/12/21 12:43:27;;;;;;;13.25;6.78;;;;;;;;;;5063493;28;20040;-60
2020/12/21 12:45:53;;;;;;;15.20;7.03;;;;;;;;;;5074489;28;20036;-51
2020/12/21 12:48:19;;;;;;;17.95;6.95;;;;;;;;;;5070794;28;20020;-51
2020/12/21 12:50:45;;;;;;;11.20;6.57;;;;;;;;;;5073122;28;20121;-55
2020/12/21 12:53:11;;;;;;;11.48;7.00;;;;;;;;;;5064988;28;20415;-51
2020/12/21 12:55:37;;;;;;;19.92;8.98;;;;;;;;;;5068849;28;20527;-52
2020/12/21 12:58:03;;;;;;;15.70;7.95;;;;;;;;;;5072976;28;20031;-53
2020/12/21 13:00:29;;;;;;;15.25;7.22;;;;;;;;;;5069343;28;20028;-50
2020/12/21 13:02:54;;;;;;;14.82;8.57;;;;;;;;;;5081167;28;20081;-49
2020/12/21 13:05:21;;;;;;;15.60;7.78;;;;;;;;;;5071067;28;20089;-52
2020/12/21 13:07:47;;;;;;;18.65;7.97;;;;;;;;;;5084134;28;20456;-51
2020/12/21 13:10:13;;;;;;;11.93;7.00;;;;;;;;;;5090079;28;20036;-51
2020/12/21 13:12:39;;;;;;;15.18;7.50;;;;;;;;;;5075840;28;20024;-53
2020/12/21 13:15:05;;;;;;;13.98;7.93;;;;;;;;;;5082154;28;20028;-52
2020/12/21 13:17:31;;;;;;;12.05;7.40;;;;;;;;;;5079246;28;20025;-50
2020/12/21 13:19:57;;;;;;;13.43;7.55;;;;;;;;;;5074405;28;20032;-52
2020/12/21 13:22:23;;;;;;;12.60;7.13;;;;;;;;;;5065539;28;20403;-52
2020/12/21 13:24:49;;;;;;;13.82;7.72;;;;;;;;;;5075871;28;20041;-51
2020/12/21 13:27:15;;;;;;;24.92;10.85;;;;;;;;;;5071233;28;20368;-50
2020/12/21 13:29:41;;;;;;;14.85;7.72;;;;;;;;;;5077447;28;20692;-49
2020/12/21 13:32:06;;;;;;;14.32;8.13;;;;;;;;;;5075721;28;20043;-53
2020/12/21 13:34:32;;;;;;;13.23;7.78;;;;;;;;;;5072989;28;20427;-49
2020/12/21 13:36:58;;;;;;;19.95;8.82;;;;;;;;;;5078696;28;20533;-54
2020/12/21 13:39:24;;;;;;;13.45;8.10;;;;;;;;;;5074719;28;20092;-49
2020/12/21 13:41:50;;;;;;;12.02;6.93;;;;;;;;;;5071508;28;20047;-51
2020/12/21 13:44:16;;;;;;;14.05;7.88;;;;;;;;;;5076046;28;20034;-54
2020/12/21 13:46:42;;;;;;;16.35;7.95;;;;;;;;;;5071093;28;20028;-52
2020/12/21 13:49:08;;;;;;;15.23;7.68;;;;;;;;;;5067490;28;20027;-51
2020/12/21 13:51:34;;;;;;;12.50;7.45;;;;;;;;;;5074495;28;20028;-54
2020/12/21 13:54:00;;;;;;;19.98;8.73;;;;;;;;;;5070835;28;20029;-53
2020/12/21 13:56:26;;;;;;;18.08;7.50;;;;;;;;;;5074473;28;20029;-51
2020/12/21 13:58:52;;;;;;;13.60;7.43;;;;;;;;;;5074675;28;20074;-51
2020/12/21 14:01:18;;;;;;;20.08;8.57;;;;;;;;;;5070793;28;20025;-49
2020/12/21 14:03:44;;;;;;;15.85;7.72;;;;;;;;;;5072169;28;20039;-53
2020/12/21 14:06:12;;;;;;;15.85;8.35;;;;;;;;;;5078234;28;20017;-50
2020/12/21 14:08:38;;;;;;;15.35;7.57;;;;;;;;;;5076658;28;20024;-53
2020/12/21 14:11:04;;;;;;;20.48;7.90;;;;;;;;;;5075168;28;20027;-48
2020/12/21 14:13:30;;;;;;;19.90;10.77;;;;;;;;;;5075806;28;20468;-51
2020/12/21 14:15:56;;;;;;;43.75;24.85;;;;;;;;;;5071804;28;20031;-53
2020/12/21 14:18:24;;;;;;;32.58;19.55;;;;;;;;;;5072853;28;20025;-54